createdAt,value
2022-10-30T00:00:45.091Z,1.67
2022-10-30T00:03:14.485Z,1.40
2022-10-30T00:05:45.542Z,1.30
2022-10-30T00:08:15.074Z,1.50
2022-10-30T00:10:43.716Z,1.63
2022-10-30T00:13:12.386Z,1.50
2022-10-30T00:15:41.115Z,1.40
2022-10-30T00:18:09.635Z,1.50
2022-10-30T00:20:38.501Z,1.40
2022-10-30T00:23:08.369Z,1.37
2022-10-30T00:25:37.083Z,1.40
2022-10-30T00:28:06.011Z,1.50
2022-10-30T00:30:34.969Z,1.50
2022-10-30T00:33:03.597Z,1.50
2022-10-30T00:35:32.230Z,1.60
2022-10-30T00:38:01.971Z,1.50
2022-10-30T00:40:32.084Z,1.60
2022-10-30T00:43:00.592Z,1.80
2022-10-30T00:45:29.344Z,1.77
2022-10-30T00:48:00.045Z,1.70
2022-10-30T00:50:29.858Z,1.20
2022-10-30T00:53:00.607Z,1.40
2022-10-30T00:55:32.306Z,1.30
2022-10-30T00:58:03.462Z,1.40
2022-10-30T01:00:32.555Z,1.57
2022-10-30T01:03:01.388Z,1.27
2022-10-30T01:05:31.913Z,1.43
2022-10-30T01:08:00.850Z,1.30
2022-10-30T01:10:29.719Z,1.27
2022-10-30T01:12:59.724Z,1.03
2022-10-30T01:15:32.277Z,1.20
2022-10-30T01:18:15.123Z,1.30
2022-10-30T01:21:04.435Z,1.30
2022-10-30T01:23:39.232Z,1.50
2022-10-30T01:26:13.582Z,1.40
2022-10-30T01:28:49.298Z,1.40
2022-10-30T01:31:25.194Z,1.70
2022-10-30T01:33:59.772Z,1.50
2022-10-30T01:36:31.851Z,1.30
2022-10-30T01:39:01.867Z,1.50
2022-10-30T01:41:30.405Z,1.37
2022-10-30T01:44:01.471Z,1.67
2022-10-30T01:46:38.680Z,1.40
2022-10-30T01:49:32.296Z,1.90
2022-10-30T01:52:08.112Z,1.53
2022-10-30T01:54:40.500Z,1.53
2022-10-30T01:57:13.942Z,1.70
2022-10-30T01:59:44.876Z,1.70
2022-10-30T02:02:15.224Z,1.70
2022-10-30T02:04:44.188Z,1.33
2022-10-30T02:07:13.015Z,1.63
2022-10-30T02:09:42.774Z,1.70
2022-10-30T02:12:11.819Z,1.30
2022-10-30T02:14:42.691Z,1.60
2022-10-30T02:17:11.571Z,1.60
2022-10-30T02:19:41.515Z,1.50
2022-10-30T02:22:11.531Z,1.30
2022-10-30T02:24:40.088Z,1.30
2022-10-30T02:27:08.722Z,1.30
2022-10-30T02:29:37.273Z,1.50
2022-10-30T02:32:06.188Z,1.23
2022-10-30T02:34:34.760Z,1.50
2022-10-30T02:37:03.303Z,1.20
2022-10-30T02:39:33.284Z,1.40
2022-10-30T02:42:02.426Z,1.47
2022-10-30T02:44:30.996Z,1.50
2022-10-30T02:46:59.647Z,1.43
2022-10-30T02:49:28.171Z,1.73
2022-10-30T02:51:56.827Z,1.53
2022-10-30T02:54:25.601Z,1.60
2022-10-30T02:56:55.487Z,1.70
2022-10-30T02:59:24.139Z,1.60
2022-10-30T03:01:52.787Z,1.40
2022-10-30T03:04:21.562Z,1.57
2022-10-30T03:06:50.153Z,1.87
2022-10-30T03:09:18.734Z,1.60
2022-10-30T03:11:47.398Z,1.60
2022-10-30T03:14:17.419Z,1.90
2022-10-30T03:16:46.005Z,1.60
2022-10-30T03:19:14.564Z,1.53
2022-10-30T03:21:43.201Z,1.47
2022-10-30T03:24:11.738Z,1.67
2022-10-30T03:26:40.284Z,1.80
2022-10-30T03:29:09.138Z,1.40
2022-10-30T03:31:39.103Z,1.50
2022-10-30T03:34:07.886Z,1.40
2022-10-30T03:36:36.588Z,1.40
2022-10-30T03:39:05.445Z,1.30
2022-10-30T03:41:34.027Z,1.27
2022-10-30T03:44:02.612Z,1.27
2022-10-30T03:46:31.460Z,1.50
2022-10-30T03:49:01.544Z,1.17
2022-10-30T03:51:30.194Z,1.20
2022-10-30T03:53:58.716Z,1.40
2022-10-30T03:56:27.266Z,1.30
2022-10-30T03:58:55.879Z,1.40
2022-10-30T04:01:24.462Z,1.17
2022-10-30T04:03:53.081Z,1.30
2022-10-30T04:06:23.072Z,1.30
2022-10-30T04:08:51.604Z,1.20
2022-10-30T04:11:20.168Z,1.30
2022-10-30T04:13:48.746Z,1.40
2022-10-30T04:16:17.279Z,1.37
2022-10-30T04:18:45.918Z,1.10
2022-10-30T04:21:14.428Z,1.33
2022-10-30T04:23:44.312Z,1.20
2022-10-30T04:26:13.098Z,1.23
2022-10-30T04:28:41.653Z,1.50
2022-10-30T04:31:10.319Z,1.30
2022-10-30T04:33:38.871Z,1.40
2022-10-30T04:36:07.743Z,1.40
2022-10-30T04:38:36.272Z,1.40
2022-10-30T04:41:06.266Z,1.37
2022-10-30T04:43:34.949Z,1.80
2022-10-30T04:46:06.241Z,1.70
2022-10-30T04:48:36.141Z,1.73
2022-10-30T04:51:04.829Z,1.60
2022-10-30T04:53:33.425Z,2.10
2022-10-30T04:56:02.033Z,1.60
2022-10-30T04:58:31.956Z,2.30
2022-10-30T05:01:03.354Z,1.77
2022-10-30T05:03:32.460Z,1.80
2022-10-30T05:06:02.607Z,1.40
2022-10-30T05:08:31.644Z,1.60
2022-10-30T05:11:00.340Z,2.00
2022-10-30T05:13:28.958Z,1.60
2022-10-30T05:15:58.896Z,1.60
2022-10-30T05:18:27.461Z,1.50
2022-10-30T05:20:56.060Z,1.50
2022-10-30T05:23:24.739Z,1.87
2022-10-30T05:25:53.303Z,1.70
2022-10-30T05:28:21.890Z,2.00
2022-10-30T05:30:54.235Z,1.40
2022-10-30T05:33:24.221Z,1.50
2022-10-30T05:35:52.776Z,1.90
2022-10-30T05:38:21.379Z,1.73
2022-10-30T05:40:49.931Z,1.63
2022-10-30T05:43:18.462Z,1.80
2022-10-30T05:45:46.993Z,1.80
2022-10-30T05:48:15.509Z,1.70
2022-10-30T05:50:45.382Z,1.60
2022-10-30T05:53:13.939Z,1.77
2022-10-30T05:55:42.478Z,1.60
2022-10-30T05:58:11.467Z,1.57
2022-10-30T06:00:40.592Z,1.50
2022-10-30T06:03:10.026Z,1.50
2022-10-30T06:05:39.181Z,1.33
2022-10-30T06:08:09.511Z,1.40
2022-10-30T06:10:38.120Z,1.30
2022-10-30T06:13:07.292Z,1.37
2022-10-30T06:15:35.882Z,1.50
2022-10-30T06:18:04.524Z,1.30
2022-10-30T06:20:33.270Z,1.10
2022-10-30T06:23:02.637Z,1.20
2022-10-30T06:25:37.917Z,1.20
2022-10-30T06:28:09.142Z,1.37
2022-10-30T06:30:37.791Z,1.30
2022-10-30T06:33:06.783Z,1.30
2022-10-30T06:35:35.461Z,1.27
2022-10-30T06:38:04.703Z,1.40
2022-10-30T06:40:34.597Z,1.20
2022-10-30T06:43:03.425Z,1.37
2022-10-30T06:45:32.119Z,1.20
2022-10-30T06:48:02.500Z,1.30
2022-10-30T06:50:31.359Z,1.27
2022-10-30T06:52:59.871Z,1.20
2022-10-30T06:55:28.464Z,1.40
2022-10-30T06:57:58.956Z,1.30
2022-10-30T07:00:27.972Z,1.30
2022-10-30T07:02:57.540Z,1.17
2022-10-30T07:05:26.451Z,1.40
2022-10-30T07:07:57.152Z,1.50
2022-10-30T07:10:25.749Z,1.50
2022-10-30T07:12:55.138Z,1.30
2022-10-30T07:15:25.272Z,1.20
2022-10-30T07:17:55.009Z,1.40
2022-10-30T07:20:24.186Z,1.20
2022-10-30T07:22:52.737Z,1.20
2022-10-30T07:25:21.311Z,1.70
2022-10-30T07:27:50.572Z,1.63
2022-10-30T07:30:20.000Z,1.57
2022-10-30T07:32:58.009Z,1.50
2022-10-30T07:35:26.870Z,1.30
2022-10-30T07:37:55.440Z,1.60
2022-10-30T07:40:24.509Z,2.13
2022-10-30T07:42:57.642Z,1.90
2022-10-30T07:45:26.920Z,2.00
2022-10-30T07:47:57.155Z,1.80
2022-10-30T07:50:26.281Z,1.80
2022-10-30T07:52:54.923Z,1.80
2022-10-30T07:55:23.489Z,1.30
2022-10-30T07:57:52.131Z,1.40
2022-10-30T08:00:20.801Z,1.20
2022-10-30T08:02:51.530Z,1.30
2022-10-30T08:05:25.546Z,1.60
2022-10-30T08:07:59.258Z,1.33
2022-10-30T08:10:28.418Z,1.60
2022-10-30T08:12:56.943Z,1.20
2022-10-30T08:15:25.910Z,1.20
2022-10-30T08:17:54.684Z,1.60
2022-10-30T08:20:25.412Z,1.40
2022-10-30T08:22:54.895Z,1.20
2022-10-30T08:25:24.214Z,1.47
2022-10-30T08:27:54.823Z,1.30
2022-10-30T08:30:23.748Z,1.30
2022-10-30T08:32:52.616Z,1.60
2022-10-30T08:35:21.268Z,1.33
2022-10-30T08:37:52.393Z,1.87
2022-10-30T08:40:20.918Z,1.63
2022-10-30T08:42:52.895Z,1.80
2022-10-30T08:45:24.099Z,1.80
2022-10-30T08:48:01.847Z,1.70
2022-10-30T08:50:30.916Z,1.60
2022-10-30T08:53:03.938Z,2.10
2022-10-30T08:55:32.905Z,1.50
2022-10-30T08:58:01.862Z,1.60
2022-10-30T09:00:30.946Z,1.50
2022-10-30T09:02:59.933Z,1.40
2022-10-30T09:05:28.954Z,1.50
2022-10-30T09:07:58.921Z,1.73
2022-10-30T09:10:29.399Z,1.87
2022-10-30T09:12:58.204Z,1.40
2022-10-30T09:15:27.438Z,1.07
2022-10-30T09:17:59.590Z,1.40
2022-10-30T09:20:28.812Z,1.50
2022-10-30T09:22:58.072Z,1.53
2022-10-30T09:25:27.119Z,1.90
2022-10-30T09:27:57.070Z,1.90
2022-10-30T09:30:26.162Z,1.47
2022-10-30T09:32:58.341Z,1.60
2022-10-30T09:35:27.698Z,2.00
2022-10-30T09:37:56.674Z,1.87
2022-10-30T09:40:30.569Z,1.80
2022-10-30T09:43:04.268Z,1.60
2022-10-30T09:45:53.960Z,1.50
2022-10-30T09:48:46.428Z,1.80
2022-10-30T09:51:21.439Z,1.40
2022-10-30T09:53:55.996Z,1.70
2022-10-30T09:56:26.318Z,1.70
2022-10-30T09:59:01.701Z,2.30
2022-10-30T10:01:32.333Z,1.93
2022-10-30T10:04:04.680Z,2.07
2022-10-30T10:06:35.713Z,1.60
2022-10-30T10:09:05.832Z,1.53
2022-10-30T10:11:37.954Z,1.80
2022-10-30T10:14:09.844Z,2.07
2022-10-30T10:16:40.783Z,1.70
2022-10-30T10:19:11.913Z,2.07
2022-10-30T10:21:45.342Z,1.70
2022-10-30T10:24:19.752Z,1.80
2022-10-30T10:26:50.993Z,1.70
2022-10-30T10:29:31.631Z,1.70
2022-10-30T10:32:08.162Z,1.80
2022-10-30T10:34:51.684Z,1.60
2022-10-30T10:37:26.723Z,1.50
2022-10-30T10:40:05.475Z,1.67
2022-10-30T10:42:37.465Z,1.67
2022-10-30T10:45:21.454Z,1.77
2022-10-30T10:47:59.287Z,1.90
2022-10-30T10:50:30.027Z,1.60
2022-10-30T10:53:01.264Z,2.10
2022-10-30T10:55:31.108Z,1.83
2022-10-30T10:58:01.424Z,1.80
2022-10-30T11:00:32.059Z,1.70
2022-10-30T11:03:03.420Z,1.60
2022-10-30T11:05:36.158Z,1.83
2022-10-30T11:08:08.759Z,1.57
2022-10-30T11:10:37.323Z,1.60
2022-10-30T11:13:05.992Z,1.40
2022-10-30T11:15:47.787Z,1.60
2022-10-30T11:18:16.646Z,1.53
2022-10-30T11:20:50.995Z,1.47
2022-10-30T11:23:39.842Z,1.57
2022-10-30T11:26:41.723Z,1.50
2022-10-30T11:29:14.087Z,1.30
2022-10-30T11:31:44.929Z,1.20
2022-10-30T11:34:22.191Z,1.20
2022-10-30T11:36:51.283Z,1.40
2022-10-30T11:39:20.742Z,1.40
2022-10-30T11:41:54.776Z,2.00
2022-10-30T11:44:25.299Z,1.27
2022-10-30T11:46:55.263Z,1.67
2022-10-30T11:49:26.251Z,1.50
2022-10-30T11:51:55.428Z,1.50
2022-10-30T11:54:24.246Z,1.40
2022-10-30T11:56:54.113Z,1.20
2022-10-30T11:59:24.467Z,1.40
2022-10-30T12:02:01.294Z,1.43
2022-10-30T12:04:32.516Z,1.50
2022-10-30T12:07:11.455Z,1.40
2022-10-30T12:09:46.995Z,1.83
2022-10-30T12:12:23.316Z,1.40
2022-10-30T12:14:52.384Z,1.90
2022-10-30T12:17:22.970Z,1.50
2022-10-30T12:19:52.715Z,1.37
2022-10-30T12:22:29.746Z,1.80
2022-10-30T12:24:59.223Z,1.27
2022-10-30T12:27:28.416Z,1.47
2022-10-30T12:30:09.688Z,1.20
2022-10-30T12:32:47.506Z,1.20
2022-10-30T12:35:23.894Z,1.40
2022-10-30T12:37:54.345Z,1.40
2022-10-30T12:40:25.070Z,1.70
2022-10-30T12:42:56.952Z,1.43
2022-10-30T12:45:28.619Z,1.50
2022-10-30T12:48:01.278Z,1.53
2022-10-30T12:50:32.631Z,1.63
2022-10-30T12:53:03.793Z,1.53
2022-10-30T12:55:35.770Z,1.40
2022-10-30T12:58:06.926Z,1.20
2022-10-30T13:00:40.669Z,1.20
2022-10-30T13:03:21.663Z,1.40
2022-10-30T13:05:52.555Z,1.67
2022-10-30T13:08:25.290Z,1.33
2022-10-30T13:10:55.572Z,1.23
2022-10-30T13:13:27.145Z,1.23
2022-10-30T13:15:56.653Z,1.40
2022-10-30T13:18:27.543Z,1.50
2022-10-30T13:21:11.061Z,1.20
2022-10-30T13:23:42.876Z,1.37
2022-10-30T13:26:15.246Z,1.33
2022-10-30T13:28:45.678Z,1.13
2022-10-30T13:31:18.537Z,1.10
2022-10-30T13:33:52.020Z,1.10
2022-10-30T13:36:23.115Z,1.10
2022-10-30T13:38:57.007Z,1.20
2022-10-30T13:41:30.712Z,1.20
2022-10-30T13:44:02.179Z,1.00
2022-10-30T13:46:36.495Z,1.30
2022-10-30T13:49:12.879Z,1.30
2022-10-30T13:51:42.968Z,1.00
2022-10-30T13:54:17.311Z,1.33
2022-10-30T13:56:47.277Z,1.40
2022-10-30T13:59:23.429Z,1.30
2022-10-30T14:01:57.488Z,1.20
2022-10-30T14:04:34.359Z,1.20
2022-10-30T14:07:08.270Z,1.30
2022-10-30T14:09:43.137Z,1.10
2022-10-30T14:12:30.229Z,1.27
2022-10-30T14:15:05.502Z,1.20
2022-10-30T14:17:34.147Z,1.00
2022-10-30T14:20:21.284Z,1.20
2022-10-30T14:23:04.751Z,1.10
2022-10-30T14:25:34.800Z,1.13
2022-10-30T14:28:03.498Z,0.90
2022-10-30T14:30:32.287Z,1.53
2022-10-30T14:33:00.937Z,1.13
2022-10-30T14:35:37.176Z,1.27
2022-10-30T14:38:28.008Z,1.27
2022-10-30T14:41:09.750Z,1.30
2022-10-30T14:43:46.065Z,1.17
2022-10-30T14:46:19.115Z,1.27
2022-10-30T14:48:50.351Z,1.10
2022-10-30T14:51:21.147Z,1.20
2022-10-30T14:53:56.218Z,1.10
2022-10-30T14:56:34.068Z,1.30
2022-10-30T14:59:21.645Z,1.50
2022-10-30T15:01:54.887Z,1.30
2022-10-30T15:04:26.763Z,1.47
2022-10-30T15:07:04.095Z,0.90
2022-10-30T15:09:41.260Z,1.00
2022-10-30T15:12:24.797Z,1.10
2022-10-30T15:14:57.039Z,1.20
2022-10-30T15:17:28.553Z,1.23
2022-10-30T15:19:57.415Z,1.30
2022-10-30T15:22:28.157Z,1.23
2022-10-30T15:24:56.886Z,1.33
2022-10-30T15:27:26.221Z,1.20
2022-10-30T15:29:57.498Z,1.67
2022-10-30T15:32:26.200Z,1.20
2022-10-30T15:34:55.449Z,1.27
2022-10-30T15:37:24.393Z,1.20
2022-10-30T15:40:10.538Z,1.10
2022-10-30T15:42:39.420Z,1.20
2022-10-30T15:45:13.611Z,1.40
2022-10-30T15:47:46.430Z,1.50
2022-10-30T15:50:15.318Z,1.40
2022-10-30T15:52:44.383Z,1.40
2022-10-30T15:55:16.980Z,1.33
2022-10-30T15:58:04.837Z,1.27
2022-10-30T16:00:36.185Z,1.17
2022-10-30T16:03:06.560Z,1.20
2022-10-30T16:05:35.479Z,1.30
2022-10-30T16:08:04.993Z,1.40
2022-10-30T16:10:35.296Z,1.60
2022-10-30T16:13:04.383Z,1.40
2022-10-30T16:15:35.676Z,1.20
2022-10-30T16:18:08.034Z,1.40
2022-10-30T16:20:37.318Z,1.40
2022-10-30T16:23:06.560Z,1.00
2022-10-30T16:25:38.389Z,1.00
2022-10-30T16:28:24.484Z,1.37
2022-10-30T16:30:54.671Z,1.80
2022-10-30T16:33:25.626Z,1.50
2022-10-30T16:35:55.902Z,1.40
2022-10-30T16:38:25.581Z,1.30
2022-10-30T16:40:54.230Z,1.33
2022-10-30T16:43:27.267Z,1.60
2022-10-30T16:45:57.466Z,1.53
2022-10-30T16:48:30.009Z,1.20
2022-10-30T16:51:02.796Z,1.30
2022-10-30T16:53:31.746Z,1.60
2022-10-30T16:56:00.458Z,1.30
2022-10-30T16:58:30.880Z,1.23
2022-10-30T17:01:05.526Z,1.47
2022-10-30T17:03:38.107Z,1.70
2022-10-30T17:06:08.304Z,1.50
2022-10-30T17:08:38.509Z,1.57
2022-10-30T17:11:08.140Z,1.40
2022-10-30T17:13:38.804Z,1.70
2022-10-30T17:16:25.290Z,1.50
2022-10-30T17:18:55.142Z,1.57
2022-10-30T17:21:24.372Z,1.50
2022-10-30T17:23:54.251Z,1.70
2022-10-30T17:26:23.167Z,1.50
2022-10-30T17:28:51.767Z,1.30
2022-10-30T17:31:27.668Z,1.30
2022-10-30T17:34:11.167Z,1.47
2022-10-30T17:36:39.736Z,1.37
2022-10-30T17:39:08.365Z,1.30
2022-10-30T17:41:37.203Z,1.37
2022-10-30T17:44:06.844Z,1.40
2022-10-30T17:46:36.850Z,1.40
2022-10-30T17:49:07.800Z,1.20
2022-10-30T17:51:36.389Z,1.30
2022-10-30T17:54:07.758Z,1.30
2022-10-30T17:56:36.375Z,1.20
2022-10-30T17:59:04.986Z,1.50
2022-10-30T18:01:33.651Z,1.40
2022-10-30T18:04:03.713Z,1.40
2022-10-30T18:06:32.238Z,1.60
2022-10-30T18:09:00.834Z,1.57
2022-10-30T18:11:29.468Z,1.27
2022-10-30T18:13:58.590Z,1.40
2022-10-30T18:16:27.241Z,1.40
2022-10-30T18:18:56.015Z,1.40
2022-10-30T18:21:27.340Z,1.40
2022-10-30T18:23:56.248Z,1.47
2022-10-30T18:26:25.810Z,1.40
2022-10-30T18:28:54.827Z,1.30
2022-10-30T18:31:24.741Z,1.70
2022-10-30T18:33:53.424Z,1.40
2022-10-30T18:36:22.733Z,1.23
2022-10-30T18:38:53.776Z,1.20
2022-10-30T18:41:23.468Z,1.37
2022-10-30T18:43:52.210Z,1.70
2022-10-30T18:46:20.742Z,1.50
2022-10-30T18:48:49.384Z,1.50
2022-10-30T18:51:18.954Z,1.40
2022-10-30T18:53:52.416Z,1.40
2022-10-30T18:56:23.615Z,1.60
2022-10-30T18:58:56.442Z,1.63
2022-10-30T19:01:30.304Z,2.00
2022-10-30T19:04:00.681Z,1.63
2022-10-30T19:06:29.296Z,1.57
2022-10-30T19:08:57.912Z,1.43
2022-10-30T19:11:30.795Z,1.23
2022-10-30T19:14:00.172Z,1.20
2022-10-30T19:16:29.064Z,1.40
2022-10-30T19:18:57.621Z,1.60
2022-10-30T19:21:27.794Z,1.53
2022-10-30T19:23:56.960Z,1.50
2022-10-30T19:26:25.476Z,1.37
2022-10-30T19:28:55.397Z,1.47
2022-10-30T19:31:23.943Z,1.70
2022-10-30T19:33:57.277Z,1.53
2022-10-30T19:36:27.901Z,1.70
2022-10-30T19:38:56.852Z,1.63
2022-10-30T19:41:25.657Z,1.50
2022-10-30T19:43:55.732Z,1.60
2022-10-30T19:46:24.283Z,1.27
2022-10-30T19:48:57.572Z,1.53
2022-10-30T19:51:27.020Z,1.40
2022-10-30T19:53:55.614Z,1.57
2022-10-30T19:56:24.213Z,1.20
2022-10-30T19:58:52.922Z,1.30
2022-10-30T20:01:23.053Z,1.27
2022-10-30T20:03:51.967Z,1.27
2022-10-30T20:06:21.361Z,1.30
2022-10-30T20:08:50.078Z,1.20
2022-10-30T20:11:18.654Z,1.30
2022-10-30T20:13:50.607Z,1.10
2022-10-30T20:16:23.723Z,1.43
2022-10-30T20:18:52.263Z,1.13
2022-10-30T20:21:21.228Z,1.33
2022-10-30T20:23:50.894Z,1.10
2022-10-30T20:26:23.525Z,1.30
2022-10-30T20:28:52.285Z,1.40
2022-10-30T20:31:20.888Z,1.60
2022-10-30T20:33:50.788Z,1.40
2022-10-30T20:36:19.348Z,1.20
2022-10-30T20:38:47.962Z,1.40
2022-10-30T20:41:21.603Z,1.40
2022-10-30T20:43:50.862Z,1.20
2022-10-30T20:46:19.752Z,1.53
2022-10-30T20:48:48.334Z,1.37
2022-10-30T20:51:18.257Z,1.40
2022-10-30T20:53:46.822Z,1.60
2022-10-30T20:56:15.413Z,1.40
2022-10-30T20:58:44.223Z,1.27
2022-10-30T21:01:13.937Z,1.23
2022-10-30T21:03:42.527Z,1.27
2022-10-30T21:06:11.090Z,1.33
2022-10-30T21:08:40.960Z,1.30
2022-10-30T21:11:09.652Z,1.30
2022-10-30T21:13:38.424Z,1.30
2022-10-30T21:16:08.380Z,1.30
2022-10-30T21:18:36.912Z,1.47
2022-10-30T21:21:06.929Z,1.30
2022-10-30T21:23:35.556Z,1.50
2022-10-30T21:26:06.801Z,1.53
2022-10-30T21:28:35.458Z,1.30
2022-10-30T21:31:04.510Z,1.30
2022-10-30T21:33:33.136Z,1.30
2022-10-30T21:36:10.911Z,1.53
2022-10-30T21:38:42.570Z,1.53
2022-10-30T21:41:13.127Z,1.50
2022-10-30T21:43:41.684Z,1.60
2022-10-30T21:46:10.756Z,1.67
2022-10-30T21:48:39.842Z,2.07
2022-10-30T21:51:10.279Z,1.77
2022-10-30T21:53:38.829Z,1.60
2022-10-30T21:56:08.364Z,1.57
2022-10-30T21:58:38.296Z,1.60
2022-10-30T22:01:07.533Z,1.70
2022-10-30T22:03:36.097Z,1.77
2022-10-30T22:06:08.293Z,1.53
2022-10-30T22:08:36.894Z,1.80
2022-10-30T22:11:05.921Z,1.70
2022-10-30T22:13:34.520Z,1.70
2022-10-30T22:16:05.062Z,1.80
2022-10-30T22:18:33.602Z,1.77
2022-10-30T22:21:02.701Z,1.93
2022-10-30T22:23:31.288Z,1.93
2022-10-30T22:26:00.746Z,1.83
2022-10-30T22:28:30.281Z,1.70
2022-10-30T22:31:04.420Z,1.77
2022-10-30T22:33:33.330Z,1.80
2022-10-30T22:36:06.013Z,1.60
2022-10-30T22:38:34.685Z,1.67
2022-10-30T22:41:13.028Z,1.63
2022-10-30T22:43:41.567Z,1.70
2022-10-30T22:46:12.030Z,1.57
2022-10-30T22:48:40.757Z,1.50
2022-10-30T22:51:15.100Z,1.60
2022-10-30T22:53:45.488Z,1.43
2022-10-30T22:56:15.492Z,1.70
2022-10-30T22:58:44.426Z,1.53
2022-10-30T23:01:15.061Z,1.60
2022-10-30T23:03:43.716Z,1.60
2022-10-30T23:06:12.346Z,1.43
2022-10-30T23:08:40.937Z,1.40
2022-10-30T23:11:09.521Z,1.70
2022-10-30T23:13:38.310Z,1.40
2022-10-30T23:16:08.012Z,1.37
2022-10-30T23:18:37.935Z,1.43
2022-10-30T23:21:07.733Z,1.60
2022-10-30T23:23:37.014Z,1.70
2022-10-30T23:26:07.299Z,1.93
2022-10-30T23:28:35.996Z,2.27
2022-10-30T23:31:05.413Z,2.10
2022-10-30T23:33:34.020Z,1.80
2022-10-30T23:36:04.442Z,1.70
2022-10-30T23:38:32.971Z,1.90
2022-10-30T23:41:01.557Z,1.90
2022-10-30T23:43:30.121Z,1.77
2022-10-30T23:45:58.662Z,1.90
2022-10-30T23:48:27.227Z,1.80
2022-10-30T23:50:55.760Z,2.10
2022-10-30T23:53:25.663Z,2.07
2022-10-30T23:55:54.235Z,1.97
2022-10-30T23:58:23.072Z,2.00
